Main page
METAR-TAF:

METAR-TAF

Airports :

Solenzara Air Base

Solenzara, France

latitude: 41-55N, longitude: 009-24E, elevation: 8 m

Current weather observation

The report was made 29 minutes ago, at 17:00 UTC
Wind 4 kt from the North/Northwest
Temperature 25°C
Humidity 69%
Pressure 1016 hPa
Visibility 10 km or more
no clouds below 1500 m and no cumulonimbus

METAR: LFKS 201700Z AUTO 34004KT CAVOK 25/19 Q1016

Time: 19:29 (17:29 UTC)

Forecast

The report was made 3 hours and 29 minutes ago, at 14:00 UTC
Forecast valid from 20 at 15 UTC to 21 at 15 UTC
Wind 8 kt from the Northeast
Visibility 10 km or more
Scattered clouds at a height of 4500 ft

TAF: LFKS 201400Z 2015/2115 04008KT 9999 SCT045

Weather observations and forecasts of more than 4000 airports (METAR and TAF reports).

The available stations are represented by yellow and red dots on the map.

Hover mouse over dot to see the name of the station.

Then click to see weather observations and forecasts.

To change the map : click on the green buttons with a black cross to zoom in, on the green button with a dash to zoom out, or on the green arrows for adjacent maps.


METAR-TAF: